Data ze zpráv METAR

Na této stránce "Data ze zpráv METAR" si můžete prohlédnout aktuální data o počasí z českých letišť.

LKKB - Kbely, Czech Republic
Distance from station: JJZ 98km
Aktualizováno v: 19/04/2018 21:00
Jasno
Jasno
 Vítr od varies
Vítr: varies 2 km/h
Teplota vzduchu: 17°C
Rosný bod: 8°C
Vlhkost: 56%
Tlak vzduchu: 1029 hPa
Souhrn: Jasno
Visibility: greater than 10 km
2018/04/19 19:00 LKKB 191900Z VRB01KT CAVOK 17/08 Q1029 NOSIG
LKPR - Prague/Ruzyne, Czech Republic
Distance from station: JJZ 108km
Aktualizováno v: 19/04/2018 21:00
Jasno
Jasno
 Vítr od SSV
Vítr: SSV 7 km/h
Teplota vzduchu: 17°C
Rosný bod: 8°C
Vlhkost: 56%
Tlak vzduchu: 1029 hPa
Souhrn: Jasno
Visibility: greater than 10 km
2018/04/19 19:00 LKPR 191900Z 03004KT CAVOK 17/08 Q1029 NOSIG
 
LKPD - Pardubice, Czech Republic
Distance from station: JJV 111km
Aktualizováno v: 19/04/2018 21:00
Jasno
Jasno
 Vítr od varies
Vítr: varies 2 km/h
Teplota vzduchu: 16°C
Rosný bod: 10°C
Vlhkost: 68%
Tlak vzduchu: 1028 hPa
Souhrn: Jasno
Visibility: greater than 10 km
2018/04/19 19:00 LKPD 191900Z VRB01KT CAVOK 16/10 Q1028 NOSIG RMK BLU BLU
LKCV - Caslav, Czech Republic
Distance from station: JJV 113km
Aktualizováno v: 19/04/2018 21:00
Jasno
Jasno
 Vítr od JZ
Vítr: JZ 7 km/h
Teplota vzduchu: 17°C
Rosný bod: 9°C
Vlhkost: 59%
Tlak vzduchu: 1028 hPa
Souhrn: Jasno
Visibility: greater than 10 km
2018/04/19 19:00 LKCV 191900Z 23004KT CAVOK 17/09 Q1028 NOSIG RMK BLU BLU
 
LKKV - Karlovy Vary, Czech Republic
Distance from station: ZJZ 173km
Aktualizováno v: 19/04/2018 21:00
Jasno
Jasno
 Vítr od V
Vítr: V 9 km/h
Teplota vzduchu: 15°C
Rosný bod: 6°C
Vlhkost: 55%
Tlak vzduchu: 1029 hPa
Souhrn: Jasno
Visibility: greater than 10 km
2018/04/19 19:00 LKKV 191900Z 08005KT CAVOK 15/06 Q1029
LKLN - Plzen Line, Czech Republic
Distance from station: JZ 189km
Aktualizováno v: 19/04/2018 21:00
Jasno
Jasno
 Vítr od SV
Vítr: SV 6 km/h
Teplota vzduchu: 18°C
Rosný bod: 8°C
Vlhkost: 52%
Tlak vzduchu: 1029 hPa
Souhrn: Jasno
Visibility: greater than 10 km
2018/04/19 19:00 LKLN 191900Z AUTO 04003KT 010V070 CAVOK 18/08 Q1029
 
LKNA - Namest, Czech Republic
Distance from station: JJV 209km
Aktualizováno v: 19/04/2018 21:00
Jasno
Jasno
 Vítr od S
Vítr: S 11 km/h
Teplota vzduchu: 19°C
Rosný bod: 9°C
Vlhkost: 52%
Tlak vzduchu: 1028 hPa
Souhrn: Jasno
Visibility: greater than 10 km
2018/04/19 19:00 LKNA 191900Z 35006KT 310V010 CAVOK 19/09 Q1028 NOSIG RMK BLU BLU
LKTB - Brno/Turany, Czech Republic
Distance from station: JJV 230km
Aktualizováno v: 19/04/2018 21:00
Jasno
Jasno
 Vítr od S
Vítr: S 9 km/h
Teplota vzduchu: 20°C
Rosný bod: 10°C
Vlhkost: 53%
Tlak vzduchu: 1028 hPa
Souhrn: Jasno
Visibility: greater than 10 km
2018/04/19 19:00 LKTB 191900Z 01005KT CAVOK 20/10 Q1028 NOSIG